createdAt,value
2018-12-21T00:01:44.626Z,100578.01
2018-12-21T00:04:13.736Z,100577.20
2018-12-21T00:06:42.324Z,100572.02
2018-12-21T00:09:10.589Z,100576.37
2018-12-21T00:11:39.001Z,100571.36
2018-12-21T00:14:07.367Z,100560.24
2018-12-21T00:16:35.471Z,100557.42
2018-12-21T00:19:03.689Z,100554.94
2018-12-21T00:21:31.834Z,100554.27
2018-12-21T00:23:59.967Z,100555.59
2018-12-21T00:26:28.113Z,100542.27
2018-12-21T00:28:56.277Z,100537.44
2018-12-21T00:31:29.886Z,100530.64
2018-12-21T00:34:03.485Z,100531.16
2018-12-21T00:36:36.978Z,100525.00
2018-12-21T00:39:12.327Z,100522.33
2018-12-21T00:41:39.661Z,100514.38
2018-12-21T00:44:14.575Z,100520.83
2018-12-21T00:46:49.574Z,100517.52
2018-12-21T00:49:18.434Z,100511.22
2018-12-21T00:51:46.571Z,100515.05
2018-12-21T00:54:15.182Z,100527.38
2018-12-21T00:56:43.313Z,100524.03
2018-12-21T00:59:11.406Z,100524.51
2018-12-21T01:01:39.662Z,100531.14
2018-12-21T01:04:07.753Z,100529.32
2018-12-21T01:06:35.987Z,100538.26
2018-12-21T01:09:04.730Z,100543.61
2018-12-21T01:11:32.855Z,100542.09
2018-12-21T01:14:01.030Z,100528.97
2018-12-21T01:16:29.271Z,100533.45
2018-12-21T01:18:57.428Z,100535.23
2018-12-21T01:21:25.606Z,100524.12
2018-12-21T01:23:53.701Z,100524.45
2018-12-21T01:26:21.789Z,100522.44
2018-12-21T01:28:49.954Z,100528.59
2018-12-21T01:31:18.066Z,100530.60
2018-12-21T01:33:46.169Z,100529.04
2018-12-21T01:36:14.386Z,100531.72
2018-12-21T01:38:42.609Z,100526.59
2018-12-21T01:41:10.823Z,100532.21
2018-12-21T01:43:39.038Z,100540.70
2018-12-21T01:46:07.227Z,100533.55
2018-12-21T01:48:35.460Z,100537.84
2018-12-21T01:51:03.880Z,100535.87
2018-12-21T01:53:35.042Z,100531.66
2018-12-21T01:56:03.148Z,100534.53
2018-12-21T01:58:31.276Z,100522.53
2018-12-21T02:00:59.367Z,100518.33
2018-12-21T02:03:27.582Z,100521.16
2018-12-21T02:05:55.708Z,100518.87
2018-12-21T02:08:23.855Z,100515.22
2018-12-21T02:10:52.101Z,100510.19
2018-12-21T02:13:20.192Z,100506.38
2018-12-21T02:15:48.355Z,100497.38
2018-12-21T02:18:16.447Z,100498.84
2018-12-21T02:20:44.613Z,100499.31
2018-12-21T02:23:12.762Z,100494.02
2018-12-21T02:25:40.968Z,100487.80
2018-12-21T02:28:09.057Z,100480.55
2018-12-21T02:30:37.214Z,100476.23
2018-12-21T02:33:05.393Z,100484.77
2018-12-21T02:35:33.590Z,100472.58
2018-12-21T02:38:01.806Z,100467.08
2018-12-21T02:40:29.921Z,100470.36
2018-12-21T02:42:58.072Z,100462.12
2018-12-21T02:45:26.239Z,100457.94
2018-12-21T02:47:54.366Z,100453.11
2018-12-21T02:50:22.533Z,100453.42
2018-12-21T02:52:50.741Z,100449.35
2018-12-21T02:55:18.975Z,100447.16
2018-12-21T02:57:47.102Z,100445.70
2018-12-21T03:00:15.176Z,100427.61
2018-12-21T03:02:43.382Z,100424.58
2018-12-21T03:05:11.540Z,100418.08
2018-12-21T03:07:39.740Z,100413.22
2018-12-21T03:10:08.242Z,100412.72
2018-12-21T03:12:36.433Z,100406.72
2018-12-21T03:15:05.620Z,100406.93
2018-12-21T03:17:33.759Z,100406.53
2018-12-21T03:20:01.910Z,100401.30
2018-12-21T03:22:30.142Z,100399.22
2018-12-21T03:24:58.250Z,100405.23
2018-12-21T03:27:26.464Z,100400.89
2018-12-21T03:29:54.603Z,100389.63
2018-12-21T03:32:22.729Z,100392.20
2018-12-21T03:34:50.945Z,100382.41
2018-12-21T03:37:19.186Z,100376.44
2018-12-21T03:39:47.327Z,100370.03
2018-12-21T03:42:15.502Z,100371.02
2018-12-21T03:44:43.763Z,100362.91
2018-12-21T03:47:11.976Z,100359.03
2018-12-21T03:49:40.117Z,100354.52
2018-12-21T03:52:08.380Z,100346.41
2018-12-21T03:54:36.566Z,100347.83
2018-12-21T03:57:04.725Z,100345.20
2018-12-21T03:59:32.868Z,100348.02
2018-12-21T04:02:01.070Z,100336.64
2018-12-21T04:04:29.262Z,100343.56
2018-12-21T04:06:57.388Z,100343.38
2018-12-21T04:09:25.595Z,100334.44
2018-12-21T04:11:53.803Z,100345.50
2018-12-21T04:14:21.925Z,100335.99
2018-12-21T04:16:50.029Z,100334.58
2018-12-21T04:19:18.176Z,100338.38
2018-12-21T04:21:46.394Z,100335.99
2018-12-21T04:24:14.566Z,100332.45
2018-12-21T04:26:42.642Z,100325.50
2018-12-21T04:29:10.757Z,100328.34
2018-12-21T04:31:38.915Z,100322.97
2018-12-21T04:34:07.058Z,100325.41
2018-12-21T04:36:35.181Z,100316.20
2018-12-21T04:39:04.574Z,100318.23
2018-12-21T04:41:32.704Z,100312.25
2018-12-21T04:44:00.830Z,100295.25
2018-12-21T04:46:28.970Z,100295.25
2018-12-21T04:48:57.049Z,100282.78
2018-12-21T04:51:25.195Z,100289.62
2018-12-21T04:53:53.351Z,100287.80
2018-12-21T04:56:21.574Z,100280.95
2018-12-21T04:58:49.728Z,100273.50
2018-12-21T05:01:17.861Z,100275.20
2018-12-21T05:03:46.109Z,100271.82
2018-12-21T05:06:14.310Z,100262.58
2018-12-21T05:08:42.467Z,100260.11
2018-12-21T05:11:10.596Z,100251.20
2018-12-21T05:13:38.865Z,100249.84
2018-12-21T05:16:07.063Z,100240.26
2018-12-21T05:18:35.286Z,100231.48
2018-12-21T05:21:03.429Z,100227.83
2018-12-21T05:23:31.563Z,100229.69
2018-12-21T05:25:59.803Z,100214.67
2018-12-21T05:28:27.966Z,100201.89
2018-12-21T05:30:56.150Z,100196.08
2018-12-21T05:33:24.337Z,100202.09
2018-12-21T05:35:52.505Z,100199.89
2018-12-21T05:38:20.721Z,100178.06
2018-12-21T05:40:48.940Z,100183.00
2018-12-21T05:43:17.009Z,100198.06
2018-12-21T05:45:45.142Z,100201.60
2018-12-21T05:48:13.291Z,100202.66
2018-12-21T05:50:41.464Z,100196.55
2018-12-21T05:53:09.557Z,100182.71
2018-12-21T05:55:37.694Z,100168.46
2018-12-21T05:58:12.502Z,100158.55
2018-12-21T06:00:40.627Z,100147.67
2018-12-21T06:03:08.774Z,100139.92
2018-12-21T06:05:36.891Z,100121.64
2018-12-21T06:08:05.098Z,100116.97
2018-12-21T06:10:33.244Z,100114.95
2018-12-21T06:13:01.376Z,100111.08
2018-12-21T06:15:29.521Z,100106.50
2018-12-21T06:17:57.674Z,100099.77
2018-12-21T06:20:25.818Z,100093.88
2018-12-21T06:22:54.034Z,100101.27
2018-12-21T06:25:22.168Z,100093.41
2018-12-21T06:27:50.277Z,100081.64
2018-12-21T06:30:18.393Z,100080.17
2018-12-21T06:32:46.505Z,100071.69
2018-12-21T06:35:14.687Z,100057.52
2018-12-21T06:37:42.850Z,100056.38
2018-12-21T06:40:10.960Z,100043.33
2018-12-21T06:42:39.086Z,100030.22
2018-12-21T06:45:07.520Z,100030.17
2018-12-21T06:47:35.600Z,100015.14
2018-12-21T06:50:03.973Z,100020.96
2018-12-21T06:52:32.121Z,100017.56
2018-12-21T06:55:00.263Z,100004.36
2018-12-21T06:57:28.372Z,100007.70
2018-12-21T06:59:56.505Z,99999.92
2018-12-21T07:02:24.625Z,99996.62
2018-12-21T07:04:52.869Z,99985.79
2018-12-21T07:07:21.737Z,99987.31
2018-12-21T07:09:50.022Z,99988.73
2018-12-21T07:12:18.267Z,99974.16
2018-12-21T07:14:46.635Z,99974.41
2018-12-21T07:17:14.927Z,99978.95
2018-12-21T07:19:43.615Z,99971.55
2018-12-21T07:22:11.842Z,99958.55
2018-12-21T07:24:40.084Z,99960.38
2018-12-21T07:27:08.343Z,99964.22
2018-12-21T07:29:36.857Z,99956.63
2018-12-21T07:32:05.150Z,99951.45
2018-12-21T07:34:33.479Z,99943.22
2018-12-21T07:37:01.722Z,99942.84
2018-12-21T07:39:32.252Z,99935.69
2018-12-21T07:42:00.239Z,99939.23
2018-12-21T07:44:28.479Z,99926.38
2018-12-21T07:46:56.776Z,99928.48
2018-12-21T07:49:25.049Z,99920.64
2018-12-21T07:51:53.291Z,99901.83
2018-12-21T07:54:21.695Z,99894.92
2018-12-21T07:56:49.906Z,99890.29
2018-12-21T07:59:18.107Z,99888.38
2018-12-21T08:01:46.451Z,99889.84
2018-12-21T08:04:14.651Z,99881.23
2018-12-21T08:06:42.944Z,99869.76
2018-12-21T08:09:11.242Z,99870.39
2018-12-21T08:11:42.676Z,99861.91
2018-12-21T08:14:10.956Z,99867.38
2018-12-21T08:16:39.231Z,99866.85
2018-12-21T08:19:07.547Z,99862.23
2018-12-21T08:21:35.891Z,99869.59
2018-12-21T08:24:04.136Z,99875.31
2018-12-21T08:26:32.382Z,99865.40
2018-12-21T08:29:00.623Z,99874.71
2018-12-21T08:31:28.853Z,99864.96
2018-12-21T08:33:57.049Z,99868.66
2018-12-21T08:36:25.271Z,99863.90
2018-12-21T08:38:53.561Z,99868.02
2018-12-21T08:41:21.855Z,99869.33
2018-12-21T08:43:50.055Z,99859.31
2018-12-21T08:46:18.349Z,99848.80
2018-12-21T08:48:46.577Z,99838.72
2018-12-21T08:51:14.794Z,99840.45
2018-12-21T08:53:43.011Z,99832.66
2018-12-21T08:56:11.383Z,99813.95
2018-12-21T08:58:39.898Z,99807.47
2018-12-21T09:01:08.132Z,99804.81
2018-12-21T09:03:36.427Z,99793.93
2018-12-21T09:06:04.685Z,99786.45
2018-12-21T09:08:32.937Z,99773.70
2018-12-21T09:11:01.173Z,99760.09
2018-12-21T09:13:29.532Z,99754.84
2018-12-21T09:15:57.911Z,99755.31
2018-12-21T09:18:26.224Z,99752.80
2018-12-21T09:20:54.534Z,99746.02
2018-12-21T09:23:23.757Z,99732.48
2018-12-21T09:25:52.127Z,99727.71
2018-12-21T09:28:20.329Z,99722.27
2018-12-21T09:30:48.522Z,99730.45
2018-12-21T09:33:16.868Z,99715.18
2018-12-21T09:35:45.255Z,99703.50
2018-12-21T09:38:13.525Z,99701.88
2018-12-21T09:40:41.799Z,99692.22
2018-12-21T09:56:48.851Z,99656.95
2018-12-21T10:02:35.711Z,99649.41
2018-12-21T10:04:58.881Z,99644.75
2018-12-21T10:07:32.040Z,99643.42
2018-12-21T10:10:21.409Z,99639.12
2018-12-21T10:12:57.935Z,99631.31
2018-12-21T10:35:47.678Z,99591.58
2018-12-21T10:38:29.794Z,99589.92
2018-12-21T12:53:12.298Z,99506.13
2018-12-21T12:55:40.547Z,99509.02
2018-12-21T12:58:08.662Z,99506.22
2018-12-21T13:00:36.873Z,99494.20
2018-12-21T13:03:05.250Z,99498.82
2018-12-21T13:05:33.605Z,99497.05
2018-12-21T13:08:01.906Z,99506.84
2018-12-21T13:10:30.008Z,99486.78
2018-12-21T13:12:58.862Z,99488.12
2018-12-21T13:15:27.277Z,99496.45
2018-12-21T13:17:55.455Z,99486.47
2018-12-21T13:20:23.550Z,99485.48
2018-12-21T13:22:51.725Z,99482.58
2018-12-21T13:25:19.817Z,99479.19
2018-12-21T13:27:47.908Z,99488.02
2018-12-21T13:30:16.011Z,99479.88
2018-12-21T13:32:44.238Z,99480.39
2018-12-21T13:35:12.378Z,99465.31
2018-12-21T13:37:40.509Z,99482.84
2018-12-21T13:40:11.593Z,99476.09
2018-12-21T13:42:39.932Z,99466.02
2018-12-21T13:45:10.230Z,99466.78
2018-12-21T13:47:38.404Z,99453.88
2018-12-21T13:50:10.149Z,99459.18
2018-12-21T13:52:54.315Z,99454.54
2018-12-21T13:55:44.090Z,99456.38
2018-12-21T13:58:16.566Z,99471.62
2018-12-21T14:00:47.450Z,99464.46
2018-12-21T14:03:18.649Z,99470.22
2018-12-21T14:05:56.207Z,99472.89
2018-12-21T14:57:44.927Z,99488.95
2018-12-21T15:03:04.423Z,99487.12
2018-12-21T15:05:33.490Z,99488.40
2018-12-21T15:08:04.060Z,99491.36
2018-12-21T15:10:48.620Z,99507.71
2018-12-21T15:13:16.693Z,99498.42
2018-12-21T15:15:45.182Z,99496.38
2018-12-21T15:18:13.375Z,99498.19
2018-12-21T15:20:41.462Z,99486.91
2018-12-21T15:23:09.673Z,99507.05
2018-12-21T15:25:45.910Z,99504.80
2018-12-21T15:28:08.016Z,99500.61
2018-12-21T15:30:36.223Z,99520.20
2018-12-21T15:33:04.521Z,99515.77
2018-12-21T15:38:32.612Z,99517.03
2018-12-21T15:41:13.039Z,99514.95
2018-12-21T15:43:50.175Z,99497.66
2018-12-21T15:46:41.444Z,99501.77
2018-12-21T15:49:45.880Z,99504.67
2018-12-21T15:55:29.658Z,99509.83
2018-12-21T17:16:12.783Z,99576.30
2018-12-21T17:52:12.719Z,99662.42
2018-12-21T17:57:37.057Z,99688.64
2018-12-21T19:03:19.610Z,99734.94
2018-12-21T19:06:05.590Z,99746.03
2018-12-21T19:08:40.455Z,99756.73
2018-12-21T19:11:15.499Z,99749.72
2018-12-21T19:13:49.251Z,99749.72
2018-12-21T19:16:28.638Z,99745.16
2018-12-21T19:20:31.098Z,99742.11
2018-12-21T19:23:04.156Z,99739.80
2018-12-21T19:25:42.675Z,99733.84
2018-12-21T19:28:20.607Z,99737.06
2018-12-21T19:30:55.284Z,99732.41
2018-12-21T19:33:27.159Z,99739.74
2018-12-21T19:36:03.207Z,99733.11
2018-12-21T19:38:33.926Z,99740.16
2018-12-21T19:41:11.878Z,99742.01
2018-12-21T19:43:43.601Z,99745.23
2018-12-21T19:46:20.828Z,99746.62
2018-12-21T20:02:34.130Z,99764.84
2018-12-21T20:08:01.424Z,99774.53
2018-12-21T20:10:37.608Z,99777.63
2018-12-21T20:13:10.441Z,99776.75
2018-12-21T20:15:45.355Z,99778.05
2018-12-21T20:21:27.155Z,99782.72
2018-12-21T20:24:01.120Z,99782.43
2018-12-21T20:26:32.319Z,99780.77
2018-12-21T20:29:02.152Z,99777.81
2018-12-21T20:31:40.119Z,99785.80
2018-12-21T20:34:14.535Z,99772.92
2018-12-21T20:36:46.758Z,99785.45
2018-12-21T20:39:23.302Z,99787.77
2018-12-21T20:41:58.060Z,99780.91
2018-12-21T20:44:33.473Z,99781.11
2018-12-21T20:47:10.535Z,99777.96
2018-12-21T20:49:40.020Z,99780.50
2018-12-21T20:52:26.748Z,99785.45
2018-12-21T20:54:59.081Z,99788.59
2018-12-21T21:02:56.878Z,99792.83
2018-12-21T21:08:19.155Z,99785.58
2018-12-21T21:10:52.994Z,99791.67
2018-12-21T21:13:28.877Z,99792.31
2018-12-21T21:16:07.464Z,99787.98
2018-12-21T21:18:45.158Z,99795.77
2018-12-21T21:21:14.021Z,99809.77
2018-12-21T21:23:46.175Z,99813.56
2018-12-21T21:26:21.558Z,99821.17
2018-12-21T21:28:50.292Z,99812.35
2018-12-21T21:31:20.128Z,99813.69
2018-12-21T21:33:53.645Z,99814.91
2018-12-21T21:36:28.897Z,99816.30
2018-12-21T21:39:10.269Z,99820.13
2018-12-21T21:41:52.082Z,99831.55
2018-12-21T21:44:31.852Z,99831.35
2018-12-21T21:47:12.530Z,99826.44
2018-12-21T21:50:49.013Z,99833.59
2018-12-21T21:53:26.106Z,99835.91
2018-12-21T21:56:04.986Z,99826.95
2018-12-21T21:58:48.201Z,99839.38
2018-12-21T22:01:27.123Z,99850.29
2018-12-21T22:04:07.639Z,99844.93
2018-12-21T22:09:45.901Z,99864.64
2018-12-21T22:12:21.187Z,99875.77
2018-12-21T22:14:57.759Z,99869.58
2018-12-21T22:17:36.819Z,99871.53
2018-12-21T22:20:16.525Z,99879.59
2018-12-21T22:23:03.473Z,99879.50
2018-12-21T22:25:53.241Z,99874.45
2018-12-21T22:28:22.175Z,99887.37
2018-12-21T22:31:11.717Z,99875.93
2018-12-21T22:33:53.929Z,99879.95
2018-12-21T22:36:26.888Z,99874.62
2018-12-21T22:38:56.265Z,99865.59
2018-12-21T22:41:26.950Z,99874.65
2018-12-21T22:43:58.455Z,99872.36
2018-12-21T22:46:34.362Z,99863.20
2018-12-21T22:49:18.706Z,99867.31
2018-12-21T22:51:52.835Z,99857.43
2018-12-21T22:54:25.546Z,99863.94
2018-12-21T22:56:59.242Z,99872.80
2018-12-21T22:59:36.589Z,99861.89
2018-12-21T23:02:13.401Z,99864.00
2018-12-21T23:05:01.156Z,99855.87
2018-12-21T23:07:37.231Z,99858.52
2018-12-21T23:10:10.386Z,99862.50
2018-12-21T23:12:45.905Z,99868.41
2018-12-21T23:15:19.430Z,99868.53
2018-12-21T23:17:53.415Z,99884.28
2018-12-21T23:20:40.574Z,99874.91
2018-12-21T23:23:20.918Z,99865.50
2018-12-21T23:25:52.138Z,99864.55
2018-12-21T23:28:29.471Z,99863.05
2018-12-21T23:31:00.401Z,99867.31
2018-12-21T23:33:53.368Z,99874.80
2018-12-21T23:36:28.102Z,99878.53
2018-12-21T23:39:14.134Z,99871.00
2018-12-21T23:42:03.410Z,99872.88
2018-12-21T23:48:01.014Z,99871.74
2018-12-21T23:50:29.189Z,99875.24
2018-12-21T23:52:57.341Z,99880.11
2018-12-21T23:55:26.333Z,99880.23
2018-12-21T23:57:55.902Z,99869.79
